Station info - map view · info · telemetry · weather · raw · status · beacons · messages · bulletins · browse · moving · my account
Callsign, ship name or locator: Clear       
It is possible to search using wildcards (*?) after a prefix. Example: OH*
APRS station OE1IWA-9 - show graphs
Map loading...
Comment: 14.3V 34C HDOP01.5 SATS06
Last status: Werner mobil
Location: 48°09.01' N 16°18.80' E - locator JN88DD76OA - show map - static map
3.3 miles Northeast bearing 24° from Brunn am Gebirge, Politischer Bezirk Mödling, Lower Austria, Austria [?]
3.7 miles North bearing 22° from Maria Enzersdorf, Politischer Bezirk Mödling, Lower Austria, Austria
4.9 miles Southwest bearing 214° from Vienna, Politischer Bezirk Wien (Stadt), Vienna, Austria
36.6 miles West bearing 271° from Bratislava, Bratislavský, Slovakia
Last position: 2021-06-16 09:14:29 EDT (1d 10h33m ago)
2021-06-16 15:14:29 CEST local time at Brunn am Gebirge, Austria [?]
Altitude: 687 ft
Course: 349°
Speed: 7 MPH
Device: Argent Data Systems: OpenTracker (tracker)
Last path: OE1IWA-9>APOTC1 via WIDE1-1,WIDE2-2,qAR,OE1XAR-14 (good)
Positions stored: 97219
Packet rate: 93 seconds between packets on average during 2616 seconds.
Other SSIDs: OE1IWA-10 OE1IWA-11 OE1IWA-12 OE1IWA-13
Stations near current position of OE1IWA-9 - show more
callsign distance last heard - EDT      callsign distance last heard - EDT
OE1UHA-5150.6 yards 98°2021-05-27 00:31:49 OE1OIW-DP203.6 yards 8°2021-06-17 19:32:28
OE1DHK263.8 yards 354°2021-06-05 13:13:08 PS-OE1DHK265.6 yards 351°2021-06-04 06:03:16
P-OE1DHK265.6 yards 351°2021-06-06 16:01:59 OE1WBC-9337.3 yards 57°2021-06-17 03:48:05
OE1DHK B356.4 yards 37°2021-06-09 02:31:30 OE1DHK-B356.4 yards 37°2021-06-09 02:31:40
OE1GKS0.4 miles 112°2021-06-03 11:28:08 OE1UHA-70.5 miles 7°2021-06-17 04:23:27
OE1UHA-90.6 miles 7°2021-05-22 07:12:09 OE1UHA-150.6 miles 8°2021-06-15 03:23:27
OE1UHA-100.6 miles 8°2021-06-17 18:27:18 OE1UHA-110.6 miles 8°2021-06-17 19:47:43
FW90980.7 miles 10°2021-06-17 19:46:42 OE1NSU-121.1 miles 291°2021-06-08 20:39:43
OE1SMC1.4 miles 267°2021-06-17 19:40:02 OE1IWA-111.5 miles 233°2021-06-17 19:44:29
DW38571.6 miles 245°2021-06-17 19:45:02 OE3OPA-91.7 miles 156°2021-05-22 04:44:25
Stations which heard OE1IWA-9 directly on radio –
callsign pkts first heard - EDT last heard longest (tx => rx) longest at - EDT
OE1XQR 22 2021-06-01 05:05:04 2021-06-16 09:14:31 JN88DB > JN88EE 7.6 miles 37° 2021-06-11 04:27:34
OE6XTR 3 2021-06-01 05:26:53 2021-06-01 13:31:17 JN78GD > JN77VN 68.3 miles 124° 2021-06-01 13:31:17
HG1PNY-1 1 2021-06-12 10:44:32 2021-06-12 10:44:32 JN88DC > JN87TN 72.9 miles 118° 2021-06-12 10:44:32
OE5ERN-10 63 2021-06-01 06:53:20 2021-06-01 13:36:25 JN78IC > JN78DH 24.1 miles 307° 2021-06-01 13:36:25
OE3XXR 5 2021-06-01 06:58:31 2021-06-01 13:30:47 JN78EF > JN78GD 10.8 miles 121° 2021-06-01 13:20:30
OE5XDO-10 1 2021-06-01 06:57:27 2021-06-01 06:57:27 JN78GD > JN68VM 42.8 miles 306° 2021-06-01 06:57:27
OE5XIM-10 5 2021-06-01 06:59:00 2021-06-01 13:32:49 JN78HC > JN78DN 34.3 miles 332° 2021-06-01 13:32:49
OE5XGL-10 5 2021-06-01 06:54:22 2021-06-01 13:22:32 JN78HC > JN67VV 40.7 miles 248° 2021-06-01 06:54:22
OE1XDS-10 11 2021-06-01 05:12:24 2021-06-12 13:05:57 JN88CB > JN88EF 12.8 miles 37° 2021-06-01 14:36:35
OE5REO-10 2 2021-06-01 06:56:26 2021-06-01 07:00:02 JN78HD > JN77BV 26.7 miles 235° 2021-06-01 06:56:26
OE1IWA-10 84 2021-06-01 05:04:04 2021-06-16 09:14:29 JN88CE > JN88ED 7.3 miles 129° 2021-06-01 05:26:22
OE3MZC-2 32 2021-06-01 05:36:39 2021-06-01 14:21:09 JN78ND > JN78XE 36.2 miles 85° 2021-06-01 13:51:51
OE3XDA-10 11 2021-06-01 05:57:44 2021-06-01 13:58:32 JN78SE > JN78LA 29.5 miles 251° 2021-06-01 05:57:44
OE3SZA-10 6 2021-06-01 06:29:58 2021-06-01 13:40:01 JN78ND > JN78KD 10.6 miles 260° 2021-06-01 06:29:58
OE1IWA-11 136 2021-06-01 05:04:04 2021-06-16 09:07:34 JN88BB > JN88DD 8.0 miles 47° 2021-06-01 14:35:34
OE1TRB-15 3 2021-06-01 14:44:49 2021-06-16 09:12:39 JN88DC > JN88EF 9.0 miles 15° 2021-06-01 14:44:49
OE3PAS-15 26 2021-06-01 14:36:06 2021-06-16 08:32:50 JN88DD > JN87DX 11.3 miles 184° 2021-06-16 08:32:50
OE3BUB-10 51 2021-06-01 05:10:15 2021-06-16 09:13:20 JN88DB > JN88FG 17.7 miles 27° 2021-06-11 04:40:14
OE3PDB-3 66 2021-06-01 05:04:04 2021-06-16 09:13:20 JN78SE > JN88BG 28.0 miles 78° 2021-06-01 14:05:44
OE3XFW-10 3 2021-06-01 14:03:41 2021-06-01 14:26:49 JN78RE > JN78XD 25.3 miles 96° 2021-06-01 14:03:41
OE3JJS-10 2 2021-06-01 05:49:30 2021-06-01 14:15:30 JN78UE > JN78VE 1.0 miles 68° 2021-06-01 05:49:30
OE3XLR 93 2021-06-01 05:29:57 2021-06-16 08:32:21 JN78DG > JN77TX 63.8 miles 108° 2021-06-01 13:15:20
OE3MUC-15 29 2021-06-01 05:53:37 2021-06-01 13:58:01 JN78EF > JN78SK 56.9 miles 77° 2021-06-01 07:09:48
OE3GWW-2 2 2021-06-01 05:30:59 2021-06-01 05:35:37 JN88AE > JN88BE 5.2 miles 72° 2021-06-01 05:35:37
OE3PDB-4 4 2021-06-01 05:19:04 2021-06-01 05:25:51 JN88DE > JN88CE 4.9 miles 284° 2021-06-01 05:19:04
OE3PDB-10 103 2021-06-01 05:04:04 2021-06-16 09:14:29 JN78SE > JN88BG 27.3 miles 78° 2021-06-01 14:06:15
OE5WWO 1 2021-06-01 07:07:44 2021-06-01 07:07:44 JN78EF > JN78DH 6.5 miles 324° 2021-06-01 07:07:44
OE5XLM-10 4 2021-06-01 06:46:39 2021-06-01 13:24:05 JN78JD > JN78CH 29.1 miles 295° 2021-06-01 06:46:39
OE3XMC-10 1 2021-06-11 02:40:15 2021-06-11 02:40:15 JN88DC > JN88FD 7.8 miles 69° 2021-06-11 02:40:15
OE3XWJ-10 18 2021-06-01 05:50:01 2021-06-01 14:23:13 JN78IC > JN78QI 33.6 miles 63° 2021-06-01 13:35:24
OE5XOL-10 4 2021-06-01 06:51:17 2021-06-01 07:04:39 JN78IC > JN78DJ 28.9 miles 316° 2021-06-01 06:51:17
OE3XXI 7 2021-06-09 06:54:08 2021-06-12 12:47:53 JN88DB > JN88HE 17.8 miles 64° 2021-06-11 04:37:12
OE3ACS-4 5 2021-06-01 14:19:37 2021-06-01 14:36:05 JN88CB > JN78XD 9.5 miles 305° 2021-06-01 14:36:05
OE1XUR-10 39 2021-06-01 05:17:26 2021-06-12 13:07:57 JN88CB > JN88ED 10.9 miles 58° 2021-06-01 14:37:07
OE1XUR 239 2021-06-01 05:04:05 2021-06-16 09:14:30 JN78XD > JN88ED 21.0 miles 90° 2021-06-01 14:21:41
OE3PDB-11 1 2021-06-01 05:24:19 2021-06-01 05:24:19 JN88DE > JN88CE 2.6 miles 280° 2021-06-01 05:24:19
DB0WGS-10 1 2021-06-01 13:19:58 2021-06-01 13:19:58 JN78DF > JN68VO 35.7 miles 316° 2021-06-01 13:19:58
OE1IWA-12 147 2021-06-01 05:04:04 2021-06-16 09:14:29 JN88DB > JN88ED 6.5 miles 30° 2021-06-11 04:38:50
OE3PDB-1 2 2021-06-01 14:09:21 2021-06-01 14:14:30 JN78TE > JN88BF 23.2 miles 78° 2021-06-01 14:09:21
OE3PDB-6 2 2021-06-01 05:25:50 2021-06-01 14:46:52 JN88ED > JN88BF 13.0 miles 303° 2021-06-01 14:46:52
OE1XAR-14 57 2021-06-01 05:04:04 2021-06-16 09:14:29 JN88DB > JN88EH 18.2 miles 16° 2021-06-11 04:38:50

Only position packets which were originated by the station are shown here. The range statistics show some extra long hops, because some digipeaters do not correctly add themselves to the digipeater path. Please check the raw packets.
About this site
This page shows real-time information collected from the Automatic Position Reporting System Internet network (APRS-IS). APRS is used by amateur (ham) radio operators to transmit real-time position information, weather data, telemetry and messages over the radio. A vehicle equipped with a GPS receiver, a VHF transmitter or HF transceiver and a small computer device called a tracker transmits it's location, speed and course in a small data packet, which is then received by a nearby iGate receiving site which forwards the packet on the Internet. Systems connected to the Internet can send information on the APRS-IS without a radio transmitter, or collect and display information transmitted anywhere in the world.
User guide · FAQ · Blog · Discussion group · Linking to aprs.fi · AIS sites · Service status · Database statistics · Advertising on aprs.fi · Technical details · API · Change log · Planned changes · Credits and thanks · Terms Of Service · iPhone/iPad APRS